sensor_id;sensor_type;location;lat;lon;timestamp;P1;durP1;ratioP1;P2;durP2;ratioP2
56297;SDS011;42208;6.376;-10.782;2022-12-20T00:01:52;34.63;;;16.25;;
56297;SDS011;42208;6.376;-10.782;2022-12-20T00:04:21;38.72;;;21.05;;
56297;SDS011;42208;6.376;-10.782;2022-12-20T00:06:50;44.25;;;20.25;;
56297;SDS011;42208;6.376;-10.782;2022-12-20T00:09:18;47.08;;;17.73;;
56297;SDS011;42208;6.376;-10.782;2022-12-20T00:11:47;48.22;;;18.90;;
56297;SDS011;42208;6.376;-10.782;2022-12-20T00:14:15;46.78;;;19.10;;
56297;SDS011;42208;6.376;-10.782;2022-12-20T00:16:43;42.95;;;20.60;;
56297;SDS011;42208;6.376;-10.782;2022-12-20T00:19:12;36.22;;;17.75;;
56297;SDS011;42208;6.376;-10.782;2022-12-20T00:21:40;46.15;;;18.52;;
56297;SDS011;42208;6.376;-10.782;2022-12-20T00:24:08;36.88;;;15.93;;
56297;SDS011;42208;6.376;-10.782;2022-12-20T00:26:37;38.88;;;14.75;;
56297;SDS011;42208;6.376;-10.782;2022-12-20T00:29:06;35.40;;;15.65;;
56297;SDS011;42208;6.376;-10.782;2022-12-20T00:31:35;34.05;;;16.33;;
56297;SDS011;42208;6.376;-10.782;2022-12-20T00:34:03;38.03;;;16.75;;
56297;SDS011;42208;6.376;-10.782;2022-12-20T00:36:32;46.08;;;20.13;;
56297;SDS011;42208;6.376;-10.782;2022-12-20T00:39:00;61.25;;;24.05;;
56297;SDS011;42208;6.376;-10.782;2022-12-20T00:41:30;61.90;;;23.42;;
56297;SDS011;42208;6.376;-10.782;2022-12-20T00:44:00;53.78;;;22.98;;
56297;SDS011;42208;6.376;-10.782;2022-12-20T00:46:29;44.50;;;18.58;;
56297;SDS011;42208;6.376;-10.782;2022-12-20T00:48:58;48.00;;;18.60;;
56297;SDS011;42208;6.376;-10.782;2022-12-20T00:51:27;39.20;;;17.83;;
56297;SDS011;42208;6.376;-10.782;2022-12-20T00:53:56;40.10;;;17.65;;
56297;SDS011;42208;6.376;-10.782;2022-12-20T00:56:25;42.55;;;18.33;;
56297;SDS011;42208;6.376;-10.782;2022-12-20T00:58:56;36.53;;;17.52;;
56297;SDS011;42208;6.376;-10.782;2022-12-20T01:01:27;40.97;;;19.98;;
56297;SDS011;42208;6.376;-10.782;2022-12-20T01:03:57;44.20;;;17.33;;
56297;SDS011;42208;6.376;-10.782;2022-12-20T01:06:26;40.80;;;18.10;;
56297;SDS011;42208;6.376;-10.782;2022-12-20T01:08:56;33.00;;;16.00;;
56297;SDS011;42208;6.376;-10.782;2022-12-20T01:11:30;27.42;;;17.20;;
56297;SDS011;42208;6.376;-10.782;2022-12-20T01:14:02;43.75;;;18.20;;
56297;SDS011;42208;6.376;-10.782;2022-12-20T01:16:36;32.90;;;16.08;;
56297;SDS011;42208;6.376;-10.782;2022-12-20T01:19:08;39.47;;;17.33;;
56297;SDS011;42208;6.376;-10.782;2022-12-20T01:21:38;33.30;;;16.65;;
56297;SDS011;42208;6.376;-10.782;2022-12-20T01:24:07;41.00;;;16.58;;
56297;SDS011;42208;6.376;-10.782;2022-12-20T01:26:36;41.97;;;18.00;;
56297;SDS011;42208;6.376;-10.782;2022-12-20T01:29:04;39.03;;;17.83;;
56297;SDS011;42208;6.376;-10.782;2022-12-20T01:31:33;38.60;;;18.45;;
56297;SDS011;42208;6.376;-10.782;2022-12-20T01:34:02;41.50;;;18.88;;
56297;SDS011;42208;6.376;-10.782;2022-12-20T01:36:32;35.67;;;17.95;;
56297;SDS011;42208;6.376;-10.782;2022-12-20T01:39:06;38.78;;;17.85;;
56297;SDS011;42208;6.376;-10.782;2022-12-20T01:41:38;32.10;;;17.67;;
56297;SDS011;42208;6.376;-10.782;2022-12-20T01:46:46;39.70;;;16.92;;
56297;SDS011;42208;6.376;-10.782;2022-12-20T01:49:26;38.92;;;17.55;;
56297;SDS011;42208;6.376;-10.782;2022-12-20T01:52:10;33.85;;;16.60;;
56297;SDS011;42208;6.376;-10.782;2022-12-20T01:55:25;28.90;;;15.75;;
56297;SDS011;42208;6.376;-10.782;2022-12-20T01:58:14;33.33;;;17.70;;
56297;SDS011;42208;6.376;-10.782;2022-12-20T02:00:39;32.17;;;17.58;;
56297;SDS011;42208;6.376;-10.782;2022-12-20T02:03:10;36.67;;;18.10;;
56297;SDS011;42208;6.376;-10.782;2022-12-20T02:05:42;31.55;;;16.35;;
56297;SDS011;42208;6.376;-10.782;2022-12-20T02:08:14;37.95;;;16.73;;
56297;SDS011;42208;6.376;-10.782;2022-12-20T02:10:59;29.27;;;16.88;;
56297;SDS011;42208;6.376;-10.782;2022-12-20T02:16:32;34.13;;;15.85;;
56297;SDS011;42208;6.376;-10.782;2022-12-20T02:30:41;28.90;;;16.65;;
56297;SDS011;42208;6.376;-10.782;2022-12-20T02:33:13;33.65;;;16.75;;
56297;SDS011;42208;6.376;-10.782;2022-12-20T02:35:42;32.85;;;16.98;;
56297;SDS011;42208;6.376;-10.782;2022-12-20T02:38:26;40.58;;;19.63;;
56297;SDS011;42208;6.376;-10.782;2022-12-20T02:43:37;47.35;;;23.48;;
56297;SDS011;42208;6.376;-10.782;2022-12-20T02:46:09;43.47;;;23.13;;
56297;SDS011;42208;6.376;-10.782;2022-12-20T02:48:38;37.88;;;21.60;;
56297;SDS011;42208;6.376;-10.782;2022-12-20T02:51:08;41.67;;;20.48;;
56297;SDS011;42208;6.376;-10.782;2022-12-20T02:53:38;37.80;;;19.83;;
56297;SDS011;42208;6.376;-10.782;2022-12-20T02:56:13;37.60;;;19.63;;
56297;SDS011;42208;6.376;-10.782;2022-12-20T03:01:34;33.83;;;16.58;;
56297;SDS011;42208;6.376;-10.782;2022-12-20T03:04:05;35.22;;;17.33;;
56297;SDS011;42208;6.376;-10.782;2022-12-20T03:06:38;37.60;;;16.52;;
56297;SDS011;42208;6.376;-10.782;2022-12-20T03:09:24;42.92;;;16.95;;
56297;SDS011;42208;6.376;-10.782;2022-12-20T03:11:52;30.77;;;15.07;;
56297;SDS011;42208;6.376;-10.782;2022-12-20T03:14:21;33.83;;;15.70;;
56297;SDS011;42208;6.376;-10.782;2022-12-20T03:16:51;32.40;;;15.20;;
56297;SDS011;42208;6.376;-10.782;2022-12-20T03:19:20;29.65;;;15.80;;
56297;SDS011;42208;6.376;-10.782;2022-12-20T03:21:48;34.10;;;17.35;;
56297;SDS011;42208;6.376;-10.782;2022-12-20T03:24:17;37.22;;;18.15;;
56297;SDS011;42208;6.376;-10.782;2022-12-20T03:26:47;34.33;;;16.73;;
56297;SDS011;42208;6.376;-10.782;2022-12-20T03:29:18;30.55;;;15.43;;
56297;SDS011;42208;6.376;-10.782;2022-12-20T03:31:47;29.70;;;16.13;;
56297;SDS011;42208;6.376;-10.782;2022-12-20T03:34:15;38.90;;;15.15;;
56297;SDS011;42208;6.376;-10.782;2022-12-20T03:36:43;26.90;;;15.02;;
56297;SDS011;42208;6.376;-10.782;2022-12-20T03:39:12;33.00;;;15.15;;
56297;SDS011;42208;6.376;-10.782;2022-12-20T03:41:41;37.58;;;15.68;;
56297;SDS011;42208;6.376;-10.782;2022-12-20T03:44:12;33.42;;;16.38;;
56297;SDS011;42208;6.376;-10.782;2022-12-20T03:46:41;31.00;;;16.00;;
56297;SDS011;42208;6.376;-10.782;2022-12-20T03:49:10;31.90;;;16.38;;
56297;SDS011;42208;6.376;-10.782;2022-12-20T03:51:44;27.15;;;15.43;;
56297;SDS011;42208;6.376;-10.782;2022-12-20T03:54:12;29.95;;;14.38;;
56297;SDS011;42208;6.376;-10.782;2022-12-20T03:56:59;29.35;;;14.98;;
56297;SDS011;42208;6.376;-10.782;2022-12-20T03:59:28;28.30;;;14.93;;
56297;SDS011;42208;6.376;-10.782;2022-12-20T04:01:58;43.25;;;14.43;;
56297;SDS011;42208;6.376;-10.782;2022-12-20T04:04:28;34.55;;;14.07;;
56297;SDS011;42208;6.376;-10.782;2022-12-20T04:06:57;29.77;;;14.10;;
56297;SDS011;42208;6.376;-10.782;2022-12-20T04:09:26;30.50;;;13.90;;
56297;SDS011;42208;6.376;-10.782;2022-12-20T04:12:02;26.58;;;13.25;;
56297;SDS011;42208;6.376;-10.782;2022-12-20T04:14:33;24.85;;;14.02;;
56297;SDS011;42208;6.376;-10.782;2022-12-20T04:17:01;25.38;;;13.63;;
56297;SDS011;42208;6.376;-10.782;2022-12-20T04:19:30;29.40;;;13.20;;
56297;SDS011;42208;6.376;-10.782;2022-12-20T04:21:59;23.60;;;12.95;;
56297;SDS011;42208;6.376;-10.782;2022-12-20T04:24:58;23.45;;;13.48;;
56297;SDS011;42208;6.376;-10.782;2022-12-20T04:27:33;27.88;;;13.05;;
56297;SDS011;42208;6.376;-10.782;2022-12-20T04:30:04;26.83;;;12.63;;
56297;SDS011;42208;6.376;-10.782;2022-12-20T04:32:34;25.98;;;13.30;;
56297;SDS011;42208;6.376;-10.782;2022-12-20T04:35:02;26.95;;;13.75;;
56297;SDS011;42208;6.376;-10.782;2022-12-20T04:37:37;23.00;;;12.40;;
56297;SDS011;42208;6.376;-10.782;2022-12-20T04:40:06;30.50;;;12.43;;
56297;SDS011;42208;6.376;-10.782;2022-12-20T04:42:51;31.60;;;13.23;;
56297;SDS011;42208;6.376;-10.782;2022-12-20T04:45:19;26.75;;;13.90;;
56297;SDS011;42208;6.376;-10.782;2022-12-20T04:47:49;28.80;;;13.43;;
56297;SDS011;42208;6.376;-10.782;2022-12-20T04:50:23;25.85;;;12.88;;
56297;SDS011;42208;6.376;-10.782;2022-12-20T04:52:51;30.52;;;13.60;;
56297;SDS011;42208;6.376;-10.782;2022-12-20T04:55:20;27.98;;;13.45;;
56297;SDS011;42208;6.376;-10.782;2022-12-20T04:57:48;29.92;;;14.32;;
56297;SDS011;42208;6.376;-10.782;2022-12-20T05:00:17;28.85;;;14.75;;
56297;SDS011;42208;6.376;-10.782;2022-12-20T05:02:52;31.00;;;14.88;;
56297;SDS011;42208;6.376;-10.782;2022-12-20T05:05:23;27.67;;;14.27;;
56297;SDS011;42208;6.376;-10.782;2022-12-20T05:07:54;29.27;;;14.82;;
56297;SDS011;42208;6.376;-10.782;2022-12-20T05:10:23;27.42;;;13.57;;
56297;SDS011;42208;6.376;-10.782;2022-12-20T05:12:53;26.13;;;13.93;;
56297;SDS011;42208;6.376;-10.782;2022-12-20T05:15:32;32.03;;;14.10;;
56297;SDS011;42208;6.376;-10.782;2022-12-20T05:18:03;24.58;;;13.40;;
56297;SDS011;42208;6.376;-10.782;2022-12-20T05:20:58;29.33;;;13.60;;
56297;SDS011;42208;6.376;-10.782;2022-12-20T05:23:27;35.10;;;14.68;;
56297;SDS011;42208;6.376;-10.782;2022-12-20T05:26:10;30.42;;;15.27;;
56297;SDS011;42208;6.376;-10.782;2022-12-20T05:28:38;28.10;;;15.85;;
56297;SDS011;42208;6.376;-10.782;2022-12-20T05:31:07;32.95;;;15.35;;
56297;SDS011;42208;6.376;-10.782;2022-12-20T05:33:35;34.58;;;16.00;;
56297;SDS011;42208;6.376;-10.782;2022-12-20T05:36:04;41.28;;;17.30;;
56297;SDS011;42208;6.376;-10.782;2022-12-20T05:38:33;38.80;;;16.70;;
56297;SDS011;42208;6.376;-10.782;2022-12-20T05:41:04;28.38;;;16.23;;
56297;SDS011;42208;6.376;-10.782;2022-12-20T05:43:32;37.22;;;18.27;;
56297;SDS011;42208;6.376;-10.782;2022-12-20T05:46:03;34.95;;;16.92;;
56297;SDS011;42208;6.376;-10.782;2022-12-20T05:48:41;43.78;;;18.20;;
56297;SDS011;42208;6.376;-10.782;2022-12-20T05:51:10;34.80;;;18.33;;
56297;SDS011;42208;6.376;-10.782;2022-12-20T05:53:52;34.70;;;18.63;;
56297;SDS011;42208;6.376;-10.782;2022-12-20T05:56:33;33.50;;;17.55;;
56297;SDS011;42208;6.376;-10.782;2022-12-20T05:59:02;43.83;;;18.77;;
56297;SDS011;42208;6.376;-10.782;2022-12-20T06:01:30;34.63;;;18.55;;
56297;SDS011;42208;6.376;-10.782;2022-12-20T06:04:00;26.83;;;16.98;;
56297;SDS011;42208;6.376;-10.782;2022-12-20T06:06:29;41.97;;;17.58;;
56297;SDS011;42208;6.376;-10.782;2022-12-20T06:08:57;33.78;;;17.65;;
56297;SDS011;42208;6.376;-10.782;2022-12-20T06:11:36;35.90;;;18.15;;
56297;SDS011;42208;6.376;-10.782;2022-12-20T06:14:09;41.45;;;18.08;;
56297;SDS011;42208;6.376;-10.782;2022-12-20T06:16:43;40.30;;;18.08;;
56297;SDS011;42208;6.376;-10.782;2022-12-20T06:19:13;30.77;;;17.88;;
56297;SDS011;42208;6.376;-10.782;2022-12-20T06:21:48;29.80;;;18.60;;
56297;SDS011;42208;6.376;-10.782;2022-12-20T06:24:23;38.13;;;17.98;;
56297;SDS011;42208;6.376;-10.782;2022-12-20T06:26:52;34.00;;;19.20;;
56297;SDS011;42208;6.376;-10.782;2022-12-20T06:29:23;31.77;;;17.90;;
56297;SDS011;42208;6.376;-10.782;2022-12-20T06:32:01;28.50;;;17.95;;
56297;SDS011;42208;6.376;-10.782;2022-12-20T06:34:31;37.42;;;18.88;;
56297;SDS011;42208;6.376;-10.782;2022-12-20T06:37:00;31.15;;;18.67;;
56297;SDS011;42208;6.376;-10.782;2022-12-20T06:39:32;40.35;;;18.80;;
56297;SDS011;42208;6.376;-10.782;2022-12-20T06:42:02;30.13;;;17.65;;
56297;SDS011;42208;6.376;-10.782;2022-12-20T06:44:33;30.70;;;18.20;;
56297;SDS011;42208;6.376;-10.782;2022-12-20T06:47:02;42.75;;;19.95;;
56297;SDS011;42208;6.376;-10.782;2022-12-20T06:49:30;36.10;;;19.15;;
56297;SDS011;42208;6.376;-10.782;2022-12-20T06:52:01;33.60;;;18.15;;
56297;SDS011;42208;6.376;-10.782;2022-12-20T06:54:46;33.05;;;19.50;;
56297;SDS011;42208;6.376;-10.782;2022-12-20T06:57:14;36.70;;;19.35;;
56297;SDS011;42208;6.376;-10.782;2022-12-20T06:59:46;37.17;;;20.63;;
56297;SDS011;42208;6.376;-10.782;2022-12-20T07:02:14;31.80;;;18.50;;
56297;SDS011;42208;6.376;-10.782;2022-12-20T07:04:43;33.40;;;20.45;;
56297;SDS011;42208;6.376;-10.782;2022-12-20T07:07:11;34.67;;;19.33;;
56297;SDS011;42208;6.376;-10.782;2022-12-20T07:09:40;31.80;;;19.33;;
56297;SDS011;42208;6.376;-10.782;2022-12-20T07:12:08;43.78;;;21.08;;
56297;SDS011;42208;6.376;-10.782;2022-12-20T07:14:37;37.78;;;20.30;;
56297;SDS011;42208;6.376;-10.782;2022-12-20T07:17:05;37.95;;;19.98;;
56297;SDS011;42208;6.376;-10.782;2022-12-20T07:19:34;32.63;;;18.92;;
56297;SDS011;42208;6.376;-10.782;2022-12-20T07:22:03;46.78;;;20.63;;
56297;SDS011;42208;6.376;-10.782;2022-12-20T07:24:32;32.60;;;20.05;;
56297;SDS011;42208;6.376;-10.782;2022-12-20T07:27:01;29.77;;;19.63;;
56297;SDS011;42208;6.376;-10.782;2022-12-20T07:29:29;33.35;;;19.20;;
56297;SDS011;42208;6.376;-10.782;2022-12-20T07:31:58;35.88;;;19.15;;
56297;SDS011;42208;6.376;-10.782;2022-12-20T07:34:26;34.47;;;19.30;;
56297;SDS011;42208;6.376;-10.782;2022-12-20T07:36:55;41.92;;;19.88;;
56297;SDS011;42208;6.376;-10.782;2022-12-20T07:39:23;38.08;;;21.67;;
56297;SDS011;42208;6.376;-10.782;2022-12-20T07:41:52;41.25;;;19.63;;
56297;SDS011;42208;6.376;-10.782;2022-12-20T07:44:21;34.50;;;18.60;;
56297;SDS011;42208;6.376;-10.782;2022-12-20T07:46:50;28.42;;;19.90;;
56297;SDS011;42208;6.376;-10.782;2022-12-20T07:49:19;42.53;;;20.40;;
56297;SDS011;42208;6.376;-10.782;2022-12-20T07:51:51;29.20;;;19.85;;
56297;SDS011;42208;6.376;-10.782;2022-12-20T07:54:25;36.90;;;20.73;;
56297;SDS011;42208;6.376;-10.782;2022-12-20T07:57:00;34.28;;;21.10;;
56297;SDS011;42208;6.376;-10.782;2022-12-20T07:59:35;32.42;;;21.65;;
56297;SDS011;42208;6.376;-10.782;2022-12-20T08:02:07;34.97;;;20.73;;
56297;SDS011;42208;6.376;-10.782;2022-12-20T08:04:40;37.03;;;21.35;;
56297;SDS011;42208;6.376;-10.782;2022-12-20T08:07:08;44.42;;;22.98;;
56297;SDS011;42208;6.376;-10.782;2022-12-20T08:09:38;44.72;;;23.52;;
56297;SDS011;42208;6.376;-10.782;2022-12-20T08:12:11;41.63;;;23.98;;
56297;SDS011;42208;6.376;-10.782;2022-12-20T08:14:42;37.58;;;21.90;;
56297;SDS011;42208;6.376;-10.782;2022-12-20T08:17:11;36.72;;;22.63;;
56297;SDS011;42208;6.376;-10.782;2022-12-20T08:19:39;41.78;;;22.92;;
56297;SDS011;42208;6.376;-10.782;2022-12-20T08:22:07;38.45;;;22.08;;
56297;SDS011;42208;6.376;-10.782;2022-12-20T08:24:36;41.40;;;21.73;;
56297;SDS011;42208;6.376;-10.782;2022-12-20T08:27:04;38.80;;;20.90;;
56297;SDS011;42208;6.376;-10.782;2022-12-20T08:29:32;35.65;;;22.02;;
56297;SDS011;42208;6.376;-10.782;2022-12-20T08:32:01;39.42;;;23.30;;
56297;SDS011;42208;6.376;-10.782;2022-12-20T08:34:29;37.55;;;23.48;;
56297;SDS011;42208;6.376;-10.782;2022-12-20T08:36:57;40.00;;;24.30;;
56297;SDS011;42208;6.376;-10.782;2022-12-20T08:39:26;42.60;;;23.30;;
56297;SDS011;42208;6.376;-10.782;2022-12-20T08:41:54;45.22;;;23.13;;
56297;SDS011;42208;6.376;-10.782;2022-12-20T08:44:22;45.60;;;22.58;;
56297;SDS011;42208;6.376;-10.782;2022-12-20T08:46:50;45.17;;;25.08;;
56297;SDS011;42208;6.376;-10.782;2022-12-20T08:49:19;43.85;;;23.35;;
56297;SDS011;42208;6.376;-10.782;2022-12-20T08:51:47;35.97;;;22.30;;
56297;SDS011;42208;6.376;-10.782;2022-12-20T08:54:15;34.53;;;19.92;;
56297;SDS011;42208;6.376;-10.782;2022-12-20T08:56:43;35.03;;;20.92;;
56297;SDS011;42208;6.376;-10.782;2022-12-20T08:59:15;36.13;;;20.55;;
56297;SDS011;42208;6.376;-10.782;2022-12-20T09:01:43;46.83;;;24.88;;
56297;SDS011;42208;6.376;-10.782;2022-12-20T09:04:12;46.50;;;23.00;;
56297;SDS011;42208;6.376;-10.782;2022-12-20T09:06:40;45.85;;;21.42;;
56297;SDS011;42208;6.376;-10.782;2022-12-20T09:09:08;38.80;;;20.50;;
56297;SDS011;42208;6.376;-10.782;2022-12-20T09:11:37;33.65;;;19.30;;
56297;SDS011;42208;6.376;-10.782;2022-12-20T09:14:05;45.40;;;22.38;;
56297;SDS011;42208;6.376;-10.782;2022-12-20T09:16:33;48.15;;;26.20;;
56297;SDS011;42208;6.376;-10.782;2022-12-20T09:19:02;60.38;;;28.67;;
56297;SDS011;42208;6.376;-10.782;2022-12-20T09:21:33;68.38;;;32.92;;
56297;SDS011;42208;6.376;-10.782;2022-12-20T09:24:01;57.47;;;26.77;;
56297;SDS011;42208;6.376;-10.782;2022-12-20T09:26:30;76.72;;;33.10;;
56297;SDS011;42208;6.376;-10.782;2022-12-20T09:28:58;83.95;;;33.85;;
56297;SDS011;42208;6.376;-10.782;2022-12-20T09:31:26;71.85;;;32.42;;
56297;SDS011;42208;6.376;-10.782;2022-12-20T09:33:55;55.40;;;31.65;;
56297;SDS011;42208;6.376;-10.782;2022-12-20T09:36:25;53.92;;;28.70;;
56297;SDS011;42208;6.376;-10.782;2022-12-20T09:38:55;69.10;;;29.13;;
56297;SDS011;42208;6.376;-10.782;2022-12-20T09:41:26;68.43;;;27.60;;
56297;SDS011;42208;6.376;-10.782;2022-12-20T09:44:00;62.25;;;27.33;;
56297;SDS011;42208;6.376;-10.782;2022-12-20T09:46:38;66.88;;;30.67;;
56297;SDS011;42208;6.376;-10.782;2022-12-20T09:49:10;64.45;;;29.52;;
56297;SDS011;42208;6.376;-10.782;2022-12-20T09:51:57;58.45;;;28.85;;
56297;SDS011;42208;6.376;-10.782;2022-12-20T09:57:29;58.50;;;28.08;;
56297;SDS011;42208;6.376;-10.782;2022-12-20T10:00:15;53.80;;;28.85;;
56297;SDS011;42208;6.376;-10.782;2022-12-20T10:02:45;69.65;;;30.15;;
56297;SDS011;42208;6.376;-10.782;2022-12-20T10:05:38;64.65;;;29.15;;
56297;SDS011;42208;6.376;-10.782;2022-12-20T10:10:55;52.20;;;28.13;;
56297;SDS011;42208;6.376;-10.782;2022-12-20T10:24:51;53.05;;;25.10;;
56297;SDS011;42208;6.376;-10.782;2022-12-20T10:27:28;60.03;;;25.65;;
56297;SDS011;42208;6.376;-10.782;2022-12-20T10:34:09;44.83;;;24.50;;
56297;SDS011;42208;6.376;-10.782;2022-12-20T10:36:37;44.75;;;23.77;;
56297;SDS011;42208;6.376;-10.782;2022-12-20T10:39:06;50.00;;;24.10;;
56297;SDS011;42208;6.376;-10.782;2022-12-20T10:46:46;50.60;;;23.42;;
56297;SDS011;42208;6.376;-10.782;2022-12-20T10:49:31;48.05;;;22.55;;
56297;SDS011;42208;6.376;-10.782;2022-12-20T10:52:07;49.35;;;25.05;;
56297;SDS011;42208;6.376;-10.782;2022-12-20T10:54:40;59.90;;;27.08;;
56297;SDS011;42208;6.376;-10.782;2022-12-20T10:59:48;52.38;;;25.85;;
56297;SDS011;42208;6.376;-10.782;2022-12-20T11:02:40;48.58;;;24.70;;
56297;SDS011;42208;6.376;-10.782;2022-12-20T11:07:24;54.17;;;24.15;;
56297;SDS011;42208;6.376;-10.782;2022-12-20T11:12:24;59.50;;;24.25;;
56297;SDS011;42208;6.376;-10.782;2022-12-20T11:15:06;46.13;;;21.00;;
56297;SDS011;42208;6.376;-10.782;2022-12-20T11:17:52;35.30;;;19.95;;
56297;SDS011;42208;6.376;-10.782;2022-12-20T11:20:37;47.75;;;22.83;;
56297;SDS011;42208;6.376;-10.782;2022-12-20T11:28:36;54.10;;;24.63;;
56297;SDS011;42208;6.376;-10.782;2022-12-20T11:34:02;43.15;;;25.70;;
56297;SDS011;42208;6.376;-10.782;2022-12-20T11:37:03;47.70;;;23.45;;
56297;SDS011;42208;6.376;-10.782;2022-12-20T11:39:46;53.47;;;25.88;;
56297;SDS011;42208;6.376;-10.782;2022-12-20T11:45:20;47.05;;;26.77;;
56297;SDS011;42208;6.376;-10.782;2022-12-20T11:51:24;40.00;;;25.05;;
56297;SDS011;42208;6.376;-10.782;2022-12-20T11:56:57;39.97;;;21.98;;
56297;SDS011;42208;6.376;-10.782;2022-12-20T11:59:34;39.60;;;21.90;;
56297;SDS011;42208;6.376;-10.782;2022-12-20T12:02:13;36.67;;;20.83;;
56297;SDS011;42208;6.376;-10.782;2022-12-20T12:07:35;37.40;;;23.73;;
56297;SDS011;42208;6.376;-10.782;2022-12-20T12:10:12;44.88;;;24.75;;
56297;SDS011;42208;6.376;-10.782;2022-12-20T12:12:52;48.28;;;23.85;;
56297;SDS011;42208;6.376;-10.782;2022-12-20T12:15:29;64.90;;;34.90;;
56297;SDS011;42208;6.376;-10.782;2022-12-20T12:18:18;47.80;;;27.30;;
56297;SDS011;42208;6.376;-10.782;2022-12-20T12:20:59;55.58;;;29.63;;
56297;SDS011;42208;6.376;-10.782;2022-12-20T12:24:13;42.28;;;22.88;;
56297;SDS011;42208;6.376;-10.782;2022-12-20T12:26:48;36.05;;;18.77;;
56297;SDS011;42208;6.376;-10.782;2022-12-20T12:29:17;49.35;;;27.80;;
56297;SDS011;42208;6.376;-10.782;2022-12-20T12:34:37;42.80;;;23.08;;
56297;SDS011;42208;6.376;-10.782;2022-12-20T12:40:20;43.55;;;22.65;;
56297;SDS011;42208;6.376;-10.782;2022-12-20T12:42:59;45.90;;;22.63;;
56297;SDS011;42208;6.376;-10.782;2022-12-20T12:45:51;39.28;;;21.08;;
56297;SDS011;42208;6.376;-10.782;2022-12-20T12:51:01;74.80;;;27.75;;
56297;SDS011;42208;6.376;-10.782;2022-12-20T12:53:53;55.17;;;27.65;;
56297;SDS011;42208;6.376;-10.782;2022-12-20T12:56:30;56.22;;;23.75;;
56297;SDS011;42208;6.376;-10.782;2022-12-20T13:20:31;36.00;;;19.20;;
56297;SDS011;42208;6.376;-10.782;2022-12-20T13:25:48;31.63;;;16.73;;
56297;SDS011;42208;6.376;-10.782;2022-12-20T13:33:22;34.42;;;18.05;;
56297;SDS011;42208;6.376;-10.782;2022-12-20T13:49:24;37.50;;;17.92;;
56297;SDS011;42208;6.376;-10.782;2022-12-20T13:54:54;39.10;;;17.98;;
56297;SDS011;42208;6.376;-10.782;2022-12-20T14:00:13;37.77;;;18.37;;
56297;SDS011;42208;6.376;-10.782;2022-12-20T14:02:52;34.10;;;16.55;;
56297;SDS011;42208;6.376;-10.782;2022-12-20T14:05:25;52.92;;;21.60;;
56297;SDS011;42208;6.376;-10.782;2022-12-20T14:08:04;61.92;;;23.42;;
56297;SDS011;42208;6.376;-10.782;2022-12-20T14:10:36;60.17;;;22.45;;
56297;SDS011;42208;6.376;-10.782;2022-12-20T14:13:22;43.33;;;17.50;;
56297;SDS011;42208;6.376;-10.782;2022-12-20T14:15:53;55.10;;;20.73;;
56297;SDS011;42208;6.376;-10.782;2022-12-20T14:18:23;35.30;;;16.90;;
56297;SDS011;42208;6.376;-10.782;2022-12-20T14:20:54;40.13;;;19.50;;
56297;SDS011;42208;6.376;-10.782;2022-12-20T14:26:14;50.13;;;20.02;;
56297;SDS011;42208;6.376;-10.782;2022-12-20T14:28:52;69.45;;;20.75;;
56297;SDS011;42208;6.376;-10.782;2022-12-20T14:36:36;37.97;;;19.08;;
56297;SDS011;42208;6.376;-10.782;2022-12-20T14:42:11;35.97;;;18.55;;
56297;SDS011;42208;6.376;-10.782;2022-12-20T14:44:40;37.47;;;17.08;;
56297;SDS011;42208;6.376;-10.782;2022-12-20T14:49:48;38.88;;;16.88;;
56297;SDS011;42208;6.376;-10.782;2022-12-20T14:52:36;38.67;;;18.75;;
56297;SDS011;42208;6.376;-10.782;2022-12-20T14:57:45;42.03;;;17.98;;
56297;SDS011;42208;6.376;-10.782;2022-12-20T15:00:23;41.83;;;18.55;;
56297;SDS011;42208;6.376;-10.782;2022-12-20T15:10:50;38.05;;;18.35;;
56297;SDS011;42208;6.376;-10.782;2022-12-20T15:16:01;31.27;;;18.15;;
56297;SDS011;42208;6.376;-10.782;2022-12-20T15:18:56;42.35;;;18.65;;
56297;SDS011;42208;6.376;-10.782;2022-12-20T15:21:33;35.22;;;18.55;;
56297;SDS011;42208;6.376;-10.782;2022-12-20T15:24:04;37.65;;;19.42;;
56297;SDS011;42208;6.376;-10.782;2022-12-20T15:26:38;49.92;;;19.95;;
56297;SDS011;42208;6.376;-10.782;2022-12-20T15:29:06;33.65;;;18.33;;
56297;SDS011;42208;6.376;-10.782;2022-12-20T15:31:41;31.15;;;18.25;;
56297;SDS011;42208;6.376;-10.782;2022-12-20T15:34:25;46.25;;;20.92;;
56297;SDS011;42208;6.376;-10.782;2022-12-20T15:37:04;44.72;;;19.75;;
56297;SDS011;42208;6.376;-10.782;2022-12-20T15:39:38;30.33;;;19.25;;
56297;SDS011;42208;6.376;-10.782;2022-12-20T15:42:09;43.45;;;19.23;;
56297;SDS011;42208;6.376;-10.782;2022-12-20T15:44:42;38.15;;;20.73;;
56297;SDS011;42208;6.376;-10.782;2022-12-20T15:47:18;42.90;;;18.80;;
56297;SDS011;42208;6.376;-10.782;2022-12-20T15:49:47;44.03;;;19.73;;
56297;SDS011;42208;6.376;-10.782;2022-12-20T15:52:20;40.35;;;17.60;;
56297;SDS011;42208;6.376;-10.782;2022-12-20T15:54:50;35.65;;;17.90;;
56297;SDS011;42208;6.376;-10.782;2022-12-20T15:57:19;43.60;;;20.65;;
56297;SDS011;42208;6.376;-10.782;2022-12-20T15:59:47;37.92;;;20.13;;
56297;SDS011;42208;6.376;-10.782;2022-12-20T16:02:37;45.03;;;18.00;;
56297;SDS011;42208;6.376;-10.782;2022-12-20T16:05:08;41.78;;;18.83;;
56297;SDS011;42208;6.376;-10.782;2022-12-20T16:07:38;39.00;;;23.70;;
56297;SDS011;42208;6.376;-10.782;2022-12-20T16:10:08;44.42;;;22.75;;
56297;SDS011;42208;6.376;-10.782;2022-12-20T16:12:40;42.08;;;21.60;;
56297;SDS011;42208;6.376;-10.782;2022-12-20T16:15:13;40.33;;;19.88;;
56297;SDS011;42208;6.376;-10.782;2022-12-20T16:17:47;35.67;;;17.63;;
56297;SDS011;42208;6.376;-10.782;2022-12-20T16:20:16;40.08;;;18.58;;
56297;SDS011;42208;6.376;-10.782;2022-12-20T16:22:44;36.22;;;17.88;;
56297;SDS011;42208;6.376;-10.782;2022-12-20T16:25:19;44.92;;;19.10;;
56297;SDS011;42208;6.376;-10.782;2022-12-20T16:27:56;35.55;;;17.63;;
56297;SDS011;42208;6.376;-10.782;2022-12-20T16:30:25;36.70;;;17.05;;
56297;SDS011;42208;6.376;-10.782;2022-12-20T16:32:53;43.13;;;17.67;;
56297;SDS011;42208;6.376;-10.782;2022-12-20T16:35:26;36.53;;;16.85;;
56297;SDS011;42208;6.376;-10.782;2022-12-20T16:37:59;42.85;;;19.15;;
56297;SDS011;42208;6.376;-10.782;2022-12-20T16:40:28;35.92;;;17.48;;
56297;SDS011;42208;6.376;-10.782;2022-12-20T16:42:58;28.75;;;16.38;;
56297;SDS011;42208;6.376;-10.782;2022-12-20T16:45:28;30.17;;;17.20;;
56297;SDS011;42208;6.376;-10.782;2022-12-20T16:47:58;39.38;;;18.92;;
56297;SDS011;42208;6.376;-10.782;2022-12-20T16:50:26;32.60;;;17.55;;
56297;SDS011;42208;6.376;-10.782;2022-12-20T16:52:54;53.03;;;18.17;;
56297;SDS011;42208;6.376;-10.782;2022-12-20T16:55:24;36.72;;;19.70;;
56297;SDS011;42208;6.376;-10.782;2022-12-20T16:57:54;36.80;;;16.98;;
56297;SDS011;42208;6.376;-10.782;2022-12-20T17:00:23;39.15;;;20.50;;
56297;SDS011;42208;6.376;-10.782;2022-12-20T17:02:53;41.78;;;19.08;;
56297;SDS011;42208;6.376;-10.782;2022-12-20T17:07:55;56.15;;;28.60;;
56297;SDS011;42208;6.376;-10.782;2022-12-20T17:10:24;37.20;;;20.42;;
56297;SDS011;42208;6.376;-10.782;2022-12-20T17:12:54;44.63;;;17.02;;
56297;SDS011;42208;6.376;-10.782;2022-12-20T17:15:27;32.20;;;18.20;;
56297;SDS011;42208;6.376;-10.782;2022-12-20T17:17:57;52.10;;;21.67;;
56297;SDS011;42208;6.376;-10.782;2022-12-20T17:20:25;46.05;;;20.75;;
56297;SDS011;42208;6.376;-10.782;2022-12-20T17:23:00;38.83;;;19.85;;